sensor_id;sensor_type;location;lat;lon;timestamp;temperature;humidity
76291;DHT22;65100;46.884;17.410;2023-07-29T00:01:36;21.63;81.37
76291;DHT22;65100;46.884;17.410;2023-07-29T00:04:02;21.35;82.93
76291;DHT22;65100;46.884;17.410;2023-07-29T00:06:28;21.37;83.09
76291;DHT22;65100;46.884;17.410;2023-07-29T00:08:53;21.72;81.30
76291;DHT22;65100;46.884;17.410;2023-07-29T00:11:19;21.77;80.71
76291;DHT22;65100;46.884;17.410;2023-07-29T00:13:44;21.85;79.90
76291;DHT22;65100;46.884;17.410;2023-07-29T00:16:10;21.88;80.30
76291;DHT22;65100;46.884;17.410;2023-07-29T00:18:35;21.83;80.68
76291;DHT22;65100;46.884;17.410;2023-07-29T00:21:01;21.83;80.78
76291;DHT22;65100;46.884;17.410;2023-07-29T00:23:26;21.85;81.02
76291;DHT22;65100;46.884;17.410;2023-07-29T00:25:52;21.83;81.03
76291;DHT22;65100;46.884;17.410;2023-07-29T00:28:17;21.78;81.50
76291;DHT22;65100;46.884;17.410;2023-07-29T00:30:43;21.61;82.17
76291;DHT22;65100;46.884;17.410;2023-07-29T00:33:08;21.45;82.57
76291;DHT22;65100;46.884;17.410;2023-07-29T00:35:34;21.30;83.07
76291;DHT22;65100;46.884;17.410;2023-07-29T00:38:00;21.25;83.52
76291;DHT22;65100;46.884;17.410;2023-07-29T00:40:28;21.20;83.86
76291;DHT22;65100;46.884;17.410;2023-07-29T00:42:53;21.46;82.59
76291;DHT22;65100;46.884;17.410;2023-07-29T00:45:19;21.42;82.64
76291;DHT22;65100;46.884;17.410;2023-07-29T00:47:44;21.21;83.41
76291;DHT22;65100;46.884;17.410;2023-07-29T00:50:11;21.14;83.71
76291;DHT22;65100;46.884;17.410;2023-07-29T00:52:38;20.98;84.51
76291;DHT22;65100;46.884;17.410;2023-07-29T00:55:05;20.97;84.18
76291;DHT22;65100;46.884;17.410;2023-07-29T00:57:31;21.17;83.34
76291;DHT22;65100;46.884;17.410;2023-07-29T00:59:57;20.84;84.69
76291;DHT22;65100;46.884;17.410;2023-07-29T01:02:23;20.80;84.47
76291;DHT22;65100;46.884;17.410;2023-07-29T01:04:57;21.21;82.90
76291;DHT22;65100;46.884;17.410;2023-07-29T01:07:54;21.35;82.53
76291;DHT22;65100;46.884;17.410;2023-07-29T01:13:06;21.42;81.23
76291;DHT22;65100;46.884;17.410;2023-07-29T01:16:01;21.46;80.55
76291;DHT22;65100;46.884;17.410;2023-07-29T01:18:32;21.37;81.15
76291;DHT22;65100;46.884;17.410;2023-07-29T01:21:00;21.30;80.99
76291;DHT22;65100;46.884;17.410;2023-07-29T01:23:31;21.31;80.64
76291;DHT22;65100;46.884;17.410;2023-07-29T01:25:57;21.28;80.78
76291;DHT22;65100;46.884;17.410;2023-07-29T01:28:23;21.30;80.49
76291;DHT22;65100;46.884;17.410;2023-07-29T01:30:52;21.32;80.23
76291;DHT22;65100;46.884;17.410;2023-07-29T01:33:26;21.10;81.01
76291;DHT22;65100;46.884;17.410;2023-07-29T01:35:57;20.79;82.89
76291;DHT22;65100;46.884;17.410;2023-07-29T01:38:35;20.77;82.75
76291;DHT22;65100;46.884;17.410;2023-07-29T01:41:01;20.90;82.09
76291;DHT22;65100;46.884;17.410;2023-07-29T01:43:28;20.67;82.98
76291;DHT22;65100;46.884;17.410;2023-07-29T01:45:54;20.54;83.72
76291;DHT22;65100;46.884;17.410;2023-07-29T01:48:19;20.74;82.78
76291;DHT22;65100;46.884;17.410;2023-07-29T01:50:45;20.95;81.86
76291;DHT22;65100;46.884;17.410;2023-07-29T01:53:10;21.05;81.38
76291;DHT22;65100;46.884;17.410;2023-07-29T01:55:36;20.95;81.68
76291;DHT22;65100;46.884;17.410;2023-07-29T01:58:01;20.98;81.52
76291;DHT22;65100;46.884;17.410;2023-07-29T02:00:27;20.87;81.98
76291;DHT22;65100;46.884;17.410;2023-07-29T02:02:52;20.74;82.56
76291;DHT22;65100;46.884;17.410;2023-07-29T02:05:17;20.61;82.94
76291;DHT22;65100;46.884;17.410;2023-07-29T02:07:43;20.66;82.92
76291;DHT22;65100;46.884;17.410;2023-07-29T02:10:08;20.60;82.96
76291;DHT22;65100;46.884;17.410;2023-07-29T02:12:34;20.50;83.40
76291;DHT22;65100;46.884;17.410;2023-07-29T02:14:59;20.12;84.72
76291;DHT22;65100;46.884;17.410;2023-07-29T02:17:25;20.51;83.16
76291;DHT22;65100;46.884;17.410;2023-07-29T02:19:51;20.41;83.67
76291;DHT22;65100;46.884;17.410;2023-07-29T02:22:17;20.19;84.47
76291;DHT22;65100;46.884;17.410;2023-07-29T02:24:43;20.43;83.83
76291;DHT22;65100;46.884;17.410;2023-07-29T02:27:09;20.64;82.82
76291;DHT22;65100;46.884;17.410;2023-07-29T02:29:34;20.60;82.54
76291;DHT22;65100;46.884;17.410;2023-07-29T02:32:00;20.51;83.02
76291;DHT22;65100;46.884;17.410;2023-07-29T02:34:25;20.10;84.46
76291;DHT22;65100;46.884;17.410;2023-07-29T02:36:51;19.99;84.80
76291;DHT22;65100;46.884;17.410;2023-07-29T02:39:16;20.10;84.31
76291;DHT22;65100;46.884;17.410;2023-07-29T02:41:42;20.27;83.74
76291;DHT22;65100;46.884;17.410;2023-07-29T02:44:07;20.34;83.43
76291;DHT22;65100;46.884;17.410;2023-07-29T02:46:33;20.23;83.96
76291;DHT22;65100;46.884;17.410;2023-07-29T02:48:58;20.00;84.67
76291;DHT22;65100;46.884;17.410;2023-07-29T02:51:24;19.81;85.57
76291;DHT22;65100;46.884;17.410;2023-07-29T02:53:50;20.15;84.46
76291;DHT22;65100;46.884;17.410;2023-07-29T02:56:15;20.17;84.06
76291;DHT22;65100;46.884;17.410;2023-07-29T02:58:41;20.36;83.70
76291;DHT22;65100;46.884;17.410;2023-07-29T03:01:06;20.66;82.40
76291;DHT22;65100;46.884;17.410;2023-07-29T03:03:32;20.60;82.25
76291;DHT22;65100;46.884;17.410;2023-07-29T03:06:02;20.47;82.42
76291;DHT22;65100;46.884;17.410;2023-07-29T03:08:28;20.25;83.33
76291;DHT22;65100;46.884;17.410;2023-07-29T03:10:54;20.19;83.65
76291;DHT22;65100;46.884;17.410;2023-07-29T03:13:20;20.25;83.21
76291;DHT22;65100;46.884;17.410;2023-07-29T03:15:45;20.30;83.16
76291;DHT22;65100;46.884;17.410;2023-07-29T03:18:11;19.86;84.99
76291;DHT22;65100;46.884;17.410;2023-07-29T03:20:36;19.83;85.29
76291;DHT22;65100;46.884;17.410;2023-07-29T03:23:02;20.00;84.73
76291;DHT22;65100;46.884;17.410;2023-07-29T03:25:28;20.09;84.15
76291;DHT22;65100;46.884;17.410;2023-07-29T03:27:54;19.87;84.55
76291;DHT22;65100;46.884;17.410;2023-07-29T03:30:20;19.62;86.06
76291;DHT22;65100;46.884;17.410;2023-07-29T03:32:47;19.82;85.51
76291;DHT22;65100;46.884;17.410;2023-07-29T03:35:13;19.71;86.07
76291;DHT22;65100;46.884;17.410;2023-07-29T03:37:38;19.76;85.38
76291;DHT22;65100;46.884;17.410;2023-07-29T03:40:05;19.51;86.18
76291;DHT22;65100;46.884;17.410;2023-07-29T03:42:31;19.73;85.59
76291;DHT22;65100;46.884;17.410;2023-07-29T03:44:56;20.06;83.85
76291;DHT22;65100;46.884;17.410;2023-07-29T03:47:22;19.78;84.79
76291;DHT22;65100;46.884;17.410;2023-07-29T03:49:47;19.71;85.20
76291;DHT22;65100;46.884;17.410;2023-07-29T03:52:12;19.79;85.19
76291;DHT22;65100;46.884;17.410;2023-07-29T03:54:38;20.32;82.56
76291;DHT22;65100;46.884;17.410;2023-07-29T03:57:03;20.27;82.09
76291;DHT22;65100;46.884;17.410;2023-07-29T03:59:29;20.29;81.96
76291;DHT22;65100;46.884;17.410;2023-07-29T04:01:54;20.34;81.45
76291;DHT22;65100;46.884;17.410;2023-07-29T04:04:20;20.29;81.52
76291;DHT22;65100;46.884;17.410;2023-07-29T04:06:45;20.06;82.06
76291;DHT22;65100;46.884;17.410;2023-07-29T04:09:11;20.03;82.46
76291;DHT22;65100;46.884;17.410;2023-07-29T04:11:36;20.56;81.79
76291;DHT22;65100;46.884;17.410;2023-07-29T04:14:02;20.50;81.85
76291;DHT22;65100;46.884;17.410;2023-07-29T04:16:27;20.74;81.22
76291;DHT22;65100;46.884;17.410;2023-07-29T04:18:54;21.37;79.16
76291;DHT22;65100;46.884;17.410;2023-07-29T04:21:19;21.18;79.75
76291;DHT22;65100;46.884;17.410;2023-07-29T04:23:45;21.07;80.58
76291;DHT22;65100;46.884;17.410;2023-07-29T04:26:11;21.95;79.35
76291;DHT22;65100;46.884;17.410;2023-07-29T04:28:36;23.48;74.27
76291;DHT22;65100;46.884;17.410;2023-07-29T04:31:02;24.16;71.63
76291;DHT22;65100;46.884;17.410;2023-07-29T04:33:29;23.86;72.70
76291;DHT22;65100;46.884;17.410;2023-07-29T04:35:55;24.12;72.54
76291;DHT22;65100;46.884;17.410;2023-07-29T04:38:20;24.70;70.19
76291;DHT22;65100;46.884;17.410;2023-07-29T04:40:46;25.13;69.60
76291;DHT22;65100;46.884;17.410;2023-07-29T04:43:13;25.55;68.29
76291;DHT22;65100;46.884;17.410;2023-07-29T04:45:45;26.21;66.40
76291;DHT22;65100;46.884;17.410;2023-07-29T04:48:10;25.03;68.37
76291;DHT22;65100;46.884;17.410;2023-07-29T04:50:36;24.96;69.15
76291;DHT22;65100;46.884;17.410;2023-07-29T04:53:01;24.42;71.08
76291;DHT22;65100;46.884;17.410;2023-07-29T04:55:27;23.48;73.69
76291;DHT22;65100;46.884;17.410;2023-07-29T04:57:52;23.44;74.65
76291;DHT22;65100;46.884;17.410;2023-07-29T05:00:18;24.33;72.00
76291;DHT22;65100;46.884;17.410;2023-07-29T05:02:43;24.32;72.53
76291;DHT22;65100;46.884;17.410;2023-07-29T05:05:09;24.39;72.27
76291;DHT22;65100;46.884;17.410;2023-07-29T05:07:34;24.48;71.11
76291;DHT22;65100;46.884;17.410;2023-07-29T05:09:59;24.09;72.18
76291;DHT22;65100;46.884;17.410;2023-07-29T05:12:25;24.90;69.51
76291;DHT22;65100;46.884;17.410;2023-07-29T05:14:50;24.80;70.02
76291;DHT22;65100;46.884;17.410;2023-07-29T05:17:16;24.06;72.97
76291;DHT22;65100;46.884;17.410;2023-07-29T05:19:41;23.71;73.83
76291;DHT22;65100;46.884;17.410;2023-07-29T05:22:07;24.76;71.21
76291;DHT22;65100;46.884;17.410;2023-07-29T05:24:32;25.27;69.11
76291;DHT22;65100;46.884;17.410;2023-07-29T05:26:58;25.54;67.04
76291;DHT22;65100;46.884;17.410;2023-07-29T05:29:23;25.84;66.80
76291;DHT22;65100;46.884;17.410;2023-07-29T05:31:48;25.06;68.84
76291;DHT22;65100;46.884;17.410;2023-07-29T05:34:14;24.53;70.80
76291;DHT22;65100;46.884;17.410;2023-07-29T05:36:39;24.49;71.88
76291;DHT22;65100;46.884;17.410;2023-07-29T05:39:05;24.30;71.63
76291;DHT22;65100;46.884;17.410;2023-07-29T05:41:30;23.99;73.49
76291;DHT22;65100;46.884;17.410;2023-07-29T05:43:56;23.47;74.98
76291;DHT22;65100;46.884;17.410;2023-07-29T05:46:21;23.59;75.12
76291;DHT22;65100;46.884;17.410;2023-07-29T05:48:47;24.08;72.90
76291;DHT22;65100;46.884;17.410;2023-07-29T05:51:12;24.02;72.96
76291;DHT22;65100;46.884;17.410;2023-07-29T05:53:37;23.90;73.86
76291;DHT22;65100;46.884;17.410;2023-07-29T05:56:03;24.29;73.06
76291;DHT22;65100;46.884;17.410;2023-07-29T05:58:29;24.79;71.17
76291;DHT22;65100;46.884;17.410;2023-07-29T06:00:57;25.10;69.97
76291;DHT22;65100;46.884;17.410;2023-07-29T06:03:22;24.74;71.10
76291;DHT22;65100;46.884;17.410;2023-07-29T06:05:48;25.50;69.49
76291;DHT22;65100;46.884;17.410;2023-07-29T06:08:14;26.09;68.13
76291;DHT22;65100;46.884;17.410;2023-07-29T06:10:39;26.31;67.07
76291;DHT22;65100;46.884;17.410;2023-07-29T06:13:05;26.35;66.27
76291;DHT22;65100;46.884;17.410;2023-07-29T06:15:31;26.57;67.10
76291;DHT22;65100;46.884;17.410;2023-07-29T06:17:56;27.38;63.37
76291;DHT22;65100;46.884;17.410;2023-07-29T06:20:22;28.04;60.90
76291;DHT22;65100;46.884;17.410;2023-07-29T06:22:47;29.02;59.58
76291;DHT22;65100;46.884;17.410;2023-07-29T06:25:13;29.16;58.48
76291;DHT22;65100;46.884;17.410;2023-07-29T06:27:38;28.92;58.93
76291;DHT22;65100;46.884;17.410;2023-07-29T06:30:04;28.56;60.51
76291;DHT22;65100;46.884;17.410;2023-07-29T06:32:30;29.16;59.17
76291;DHT22;65100;46.884;17.410;2023-07-29T06:34:55;29.22;58.49
76291;DHT22;65100;46.884;17.410;2023-07-29T06:37:20;28.95;59.61
76291;DHT22;65100;46.884;17.410;2023-07-29T06:39:47;29.34;56.96
76291;DHT22;65100;46.884;17.410;2023-07-29T06:42:12;29.43;56.94
76291;DHT22;65100;46.884;17.410;2023-07-29T06:44:39;29.80;57.19
76291;DHT22;65100;46.884;17.410;2023-07-29T06:47:05;29.80;57.96
76291;DHT22;65100;46.884;17.410;2023-07-29T06:49:30;29.42;58.47
76291;DHT22;65100;46.884;17.410;2023-07-29T06:51:56;29.09;59.36
76291;DHT22;65100;46.884;17.410;2023-07-29T06:54:42;28.41;61.46
76291;DHT22;65100;46.884;17.410;2023-07-29T06:57:08;28.00;62.87
76291;DHT22;65100;46.884;17.410;2023-07-29T06:59:33;28.46;61.88
76291;DHT22;65100;46.884;17.410;2023-07-29T07:01:59;28.75;60.69
76291;DHT22;65100;46.884;17.410;2023-07-29T07:04:25;29.14;58.55
76291;DHT22;65100;46.884;17.410;2023-07-29T07:06:50;29.85;56.51
76291;DHT22;65100;46.884;17.410;2023-07-29T07:09:16;29.67;56.44
76291;DHT22;65100;46.884;17.410;2023-07-29T07:11:41;29.68;56.15
76291;DHT22;65100;46.884;17.410;2023-07-29T07:14:07;30.48;54.85
76291;DHT22;65100;46.884;17.410;2023-07-29T07:16:32;31.26;52.74
76291;DHT22;65100;46.884;17.410;2023-07-29T07:18:58;31.30;54.73
76291;DHT22;65100;46.884;17.410;2023-07-29T07:21:23;31.51;52.60
76291;DHT22;65100;46.884;17.410;2023-07-29T07:23:51;31.29;53.36
76291;DHT22;65100;46.884;17.410;2023-07-29T07:26:17;30.99;53.90
76291;DHT22;65100;46.884;17.410;2023-07-29T07:28:42;31.18;53.40
76291;DHT22;65100;46.884;17.410;2023-07-29T07:31:08;30.46;55.49
76291;DHT22;65100;46.884;17.410;2023-07-29T07:33:33;31.30;53.06
76291;DHT22;65100;46.884;17.410;2023-07-29T07:35:58;30.76;53.00
76291;DHT22;65100;46.884;17.410;2023-07-29T07:38:24;31.44;54.23
76291;DHT22;65100;46.884;17.410;2023-07-29T07:40:54;31.26;53.69
76291;DHT22;65100;46.884;17.410;2023-07-29T07:43:20;31.49;53.66
76291;DHT22;65100;46.884;17.410;2023-07-29T07:45:45;31.12;52.72
76291;DHT22;65100;46.884;17.410;2023-07-29T07:48:11;32.08;51.18
76291;DHT22;65100;46.884;17.410;2023-07-29T07:50:38;32.60;49.76
76291;DHT22;65100;46.884;17.410;2023-07-29T07:53:04;33.96;46.76
76291;DHT22;65100;46.884;17.410;2023-07-29T07:55:29;33.47;48.14
76291;DHT22;65100;46.884;17.410;2023-07-29T07:57:54;33.93;47.38
76291;DHT22;65100;46.884;17.410;2023-07-29T08:00:20;33.57;46.74
76291;DHT22;65100;46.884;17.410;2023-07-29T08:02:45;33.88;47.10
76291;DHT22;65100;46.884;17.410;2023-07-29T08:05:11;34.32;44.31
76291;DHT22;65100;46.884;17.410;2023-07-29T08:07:36;34.61;44.00
76291;DHT22;65100;46.884;17.410;2023-07-29T08:10:02;34.98;43.29
76291;DHT22;65100;46.884;17.410;2023-07-29T08:12:27;32.81;49.15
76291;DHT22;65100;46.884;17.410;2023-07-29T08:14:53;31.37;53.30
76291;DHT22;65100;46.884;17.410;2023-07-29T08:17:18;31.93;52.32
76291;DHT22;65100;46.884;17.410;2023-07-29T08:19:44;31.70;50.50
76291;DHT22;65100;46.884;17.410;2023-07-29T08:22:09;31.51;51.30
76291;DHT22;65100;46.884;17.410;2023-07-29T08:24:35;31.69;51.14
76291;DHT22;65100;46.884;17.410;2023-07-29T08:27:00;30.93;52.62
76291;DHT22;65100;46.884;17.410;2023-07-29T08:29:26;30.25;54.74
76291;DHT22;65100;46.884;17.410;2023-07-29T08:31:52;29.88;55.91
76291;DHT22;65100;46.884;17.410;2023-07-29T08:34:17;29.77;56.36
76291;DHT22;65100;46.884;17.410;2023-07-29T08:36:43;30.11;54.57
76291;DHT22;65100;46.884;17.410;2023-07-29T08:39:08;30.24;53.94
76291;DHT22;65100;46.884;17.410;2023-07-29T08:41:51;29.97;55.23
76291;DHT22;65100;46.884;17.410;2023-07-29T08:44:23;29.60;54.18
76291;DHT22;65100;46.884;17.410;2023-07-29T08:46:49;29.44;55.75
76291;DHT22;65100;46.884;17.410;2023-07-29T08:49:16;29.70;54.89
76291;DHT22;65100;46.884;17.410;2023-07-29T08:51:48;29.67;55.93
76291;DHT22;65100;46.884;17.410;2023-07-29T08:54:14;29.03;56.74
76291;DHT22;65100;46.884;17.410;2023-07-29T08:56:41;29.04;57.67
76291;DHT22;65100;46.884;17.410;2023-07-29T08:59:10;28.52;59.66
76291;DHT22;65100;46.884;17.410;2023-07-29T09:01:38;28.53;58.45
76291;DHT22;65100;46.884;17.410;2023-07-29T09:04:03;28.76;57.62
76291;DHT22;65100;46.884;17.410;2023-07-29T09:06:31;29.03;57.43
76291;DHT22;65100;46.884;17.410;2023-07-29T09:08:56;29.43;56.90
76291;DHT22;65100;46.884;17.410;2023-07-29T09:11:23;29.09;55.24
76291;DHT22;65100;46.884;17.410;2023-07-29T09:13:49;29.38;55.18
76291;DHT22;65100;46.884;17.410;2023-07-29T09:16:15;29.50;55.99
76291;DHT22;65100;46.884;17.410;2023-07-29T09:18:40;29.35;53.73
76291;DHT22;65100;46.884;17.410;2023-07-29T09:21:06;29.57;55.12
76291;DHT22;65100;46.884;17.410;2023-07-29T09:23:41;29.84;54.41
76291;DHT22;65100;46.884;17.410;2023-07-29T09:26:07;30.24;52.61
76291;DHT22;65100;46.884;17.410;2023-07-29T09:28:39;31.02;50.99
76291;DHT22;65100;46.884;17.410;2023-07-29T09:31:05;31.06;51.85
76291;DHT22;65100;46.884;17.410;2023-07-29T09:33:35;30.80;51.53
76291;DHT22;65100;46.884;17.410;2023-07-29T09:36:09;30.52;53.57
76291;DHT22;65100;46.884;17.410;2023-07-29T09:38:35;30.62;52.09
76291;DHT22;65100;46.884;17.410;2023-07-29T09:41:22;30.42;51.71
76291;DHT22;65100;46.884;17.410;2023-07-29T09:44:11;30.29;51.81
76291;DHT22;65100;46.884;17.410;2023-07-29T09:46:37;30.64;51.53
76291;DHT22;65100;46.884;17.410;2023-07-29T09:49:07;30.28;53.04
76291;DHT22;65100;46.884;17.410;2023-07-29T09:51:39;30.10;52.19
76291;DHT22;65100;46.884;17.410;2023-07-29T09:54:05;30.11;52.08
76291;DHT22;65100;46.884;17.410;2023-07-29T09:56:31;30.20;52.03
76291;DHT22;65100;46.884;17.410;2023-07-29T09:58:57;30.15;52.87
76291;DHT22;65100;46.884;17.410;2023-07-29T10:01:24;30.38;52.63
76291;DHT22;65100;46.884;17.410;2023-07-29T10:03:50;30.38;50.69
76291;DHT22;65100;46.884;17.410;2023-07-29T10:06:17;30.49;52.18
76291;DHT22;65100;46.884;17.410;2023-07-29T10:08:43;30.62;51.69
76291;DHT22;65100;46.884;17.410;2023-07-29T10:11:10;30.48;51.28
76291;DHT22;65100;46.884;17.410;2023-07-29T10:13:36;30.12;51.99
76291;DHT22;65100;46.884;17.410;2023-07-29T10:16:02;30.41;51.80
76291;DHT22;65100;46.884;17.410;2023-07-29T10:18:29;30.56;51.60
76291;DHT22;65100;46.884;17.410;2023-07-29T10:20:57;30.68;50.87
76291;DHT22;65100;46.884;17.410;2023-07-29T10:23:24;30.76;51.00
76291;DHT22;65100;46.884;17.410;2023-07-29T10:25:55;30.62;49.89
76291;DHT22;65100;46.884;17.410;2023-07-29T10:28:25;30.69;50.38
76291;DHT22;65100;46.884;17.410;2023-07-29T10:30:52;30.85;47.57
76291;DHT22;65100;46.884;17.410;2023-07-29T10:33:17;30.83;47.26
76291;DHT22;65100;46.884;17.410;2023-07-29T10:35:43;30.51;49.60
76291;DHT22;65100;46.884;17.410;2023-07-29T10:38:09;30.68;47.03
76291;DHT22;65100;46.884;17.410;2023-07-29T10:41:07;30.55;50.84
76291;DHT22;65100;46.884;17.410;2023-07-29T10:43:35;30.14;49.20
76291;DHT22;65100;46.884;17.410;2023-07-29T10:46:18;30.18;49.38
76291;DHT22;65100;46.884;17.410;2023-07-29T10:51:23;29.53;51.13
76291;DHT22;65100;46.884;17.410;2023-07-29T10:53:57;29.31;53.51
76291;DHT22;65100;46.884;17.410;2023-07-29T10:56:32;29.23;52.49
76291;DHT22;65100;46.884;17.410;2023-07-29T11:01:43;29.82;52.52
76291;DHT22;65100;46.884;17.410;2023-07-29T11:09:51;30.11;49.64
76291;DHT22;65100;46.884;17.410;2023-07-29T11:12:39;29.89;49.18
76291;DHT22;65100;46.884;17.410;2023-07-29T11:17:42;29.80;51.34
76291;DHT22;65100;46.884;17.410;2023-07-29T11:20:09;29.53;51.32
76291;DHT22;65100;46.884;17.410;2023-07-29T11:22:35;29.61;49.67
76291;DHT22;65100;46.884;17.410;2023-07-29T11:25:01;29.76;50.53
76291;DHT22;65100;46.884;17.410;2023-07-29T11:27:27;29.78;50.37
76291;DHT22;65100;46.884;17.410;2023-07-29T11:30:03;29.63;51.56
76291;DHT22;65100;46.884;17.410;2023-07-29T11:32:30;29.44;52.05
76291;DHT22;65100;46.884;17.410;2023-07-29T11:34:56;29.33;51.89
76291;DHT22;65100;46.884;17.410;2023-07-29T11:37:22;29.37;52.05
76291;DHT22;65100;46.884;17.410;2023-07-29T11:39:47;29.53;53.47
76291;DHT22;65100;46.884;17.410;2023-07-29T11:42:15;29.66;54.63
76291;DHT22;65100;46.884;17.410;2023-07-29T11:44:41;29.43;53.31
76291;DHT22;65100;46.884;17.410;2023-07-29T11:47:11;29.58;53.85
76291;DHT22;65100;46.884;17.410;2023-07-29T11:49:38;29.73;53.63
76291;DHT22;65100;46.884;17.410;2023-07-29T11:52:06;29.70;54.09
76291;DHT22;65100;46.884;17.410;2023-07-29T11:54:32;29.50;53.93
76291;DHT22;65100;46.884;17.410;2023-07-29T11:56:58;29.73;52.89
76291;DHT22;65100;46.884;17.410;2023-07-29T11:59:24;30.02;51.92
76291;DHT22;65100;46.884;17.410;2023-07-29T12:01:49;29.74;51.64
76291;DHT22;65100;46.884;17.410;2023-07-29T12:04:15;29.34;54.95
76291;DHT22;65100;46.884;17.410;2023-07-29T12:06:41;29.74;53.29
76291;DHT22;65100;46.884;17.410;2023-07-29T12:09:07;29.78;53.74
76291;DHT22;65100;46.884;17.410;2023-07-29T12:11:34;29.71;53.40
76291;DHT22;65100;46.884;17.410;2023-07-29T12:14:00;29.60;54.38
76291;DHT22;65100;46.884;17.410;2023-07-29T12:16:26;29.73;53.95
76291;DHT22;65100;46.884;17.410;2023-07-29T12:18:51;29.37;53.86
76291;DHT22;65100;46.884;17.410;2023-07-29T12:21:18;29.51;53.60
76291;DHT22;65100;46.884;17.410;2023-07-29T12:23:44;29.67;54.09
76291;DHT22;65100;46.884;17.410;2023-07-29T12:26:10;29.77;54.74
76291;DHT22;65100;46.884;17.410;2023-07-29T12:28:35;30.07;52.49
76291;DHT22;65100;46.884;17.410;2023-07-29T12:31:00;30.08;53.12
76291;DHT22;65100;46.884;17.410;2023-07-29T12:33:35;30.02;53.21
76291;DHT22;65100;46.884;17.410;2023-07-29T12:36:01;29.60;53.43
76291;DHT22;65100;46.884;17.410;2023-07-29T12:38:26;29.42;53.27
76291;DHT22;65100;46.884;17.410;2023-07-29T12:40:52;29.46;53.69
76291;DHT22;65100;46.884;17.410;2023-07-29T12:43:18;29.57;53.08
76291;DHT22;65100;46.884;17.410;2023-07-29T12:45:43;29.64;53.77
76291;DHT22;65100;46.884;17.410;2023-07-29T12:48:10;29.77;55.00
76291;DHT22;65100;46.884;17.410;2023-07-29T12:50:36;29.73;54.13
76291;DHT22;65100;46.884;17.410;2023-07-29T12:53:01;29.63;55.40
76291;DHT22;65100;46.884;17.410;2023-07-29T12:55:27;29.56;53.34
76291;DHT22;65100;46.884;17.410;2023-07-29T12:57:53;29.66;54.38
76291;DHT22;65100;46.884;17.410;2023-07-29T13:00:18;29.77;53.30
76291;DHT22;65100;46.884;17.410;2023-07-29T13:02:44;29.70;53.82
76291;DHT22;65100;46.884;17.410;2023-07-29T13:05:10;29.67;54.44
76291;DHT22;65100;46.884;17.410;2023-07-29T13:07:37;29.76;53.57
76291;DHT22;65100;46.884;17.410;2023-07-29T13:10:04;29.70;53.64
76291;DHT22;65100;46.884;17.410;2023-07-29T13:12:29;29.74;54.22
76291;DHT22;65100;46.884;17.410;2023-07-29T13:14:55;29.92;55.15
76291;DHT22;65100;46.884;17.410;2023-07-29T13:17:21;30.11;52.49
76291;DHT22;65100;46.884;17.410;2023-07-29T13:19:47;29.74;52.22
76291;DHT22;65100;46.884;17.410;2023-07-29T13:22:12;29.89;53.07
76291;DHT22;65100;46.884;17.410;2023-07-29T13:24:38;29.73;52.43
76291;DHT22;65100;46.884;17.410;2023-07-29T13:27:04;29.84;53.15
76291;DHT22;65100;46.884;17.410;2023-07-29T13:29:29;29.81;51.85
76291;DHT22;65100;46.884;17.410;2023-07-29T13:31:55;29.88;51.82
76291;DHT22;65100;46.884;17.410;2023-07-29T13:34:20;30.07;52.69
76291;DHT22;65100;46.884;17.410;2023-07-29T13:36:47;29.81;53.78
76291;DHT22;65100;46.884;17.410;2023-07-29T13:39:12;29.84;53.00
76291;DHT22;65100;46.884;17.410;2023-07-29T13:41:37;29.71;53.02
76291;DHT22;65100;46.884;17.410;2023-07-29T13:44:03;29.96;52.63
76291;DHT22;65100;46.884;17.410;2023-07-29T13:46:29;29.94;51.41
76291;DHT22;65100;46.884;17.410;2023-07-29T13:48:54;30.04;51.73
76291;DHT22;65100;46.884;17.410;2023-07-29T13:51:20;30.29;50.07
76291;DHT22;65100;46.884;17.410;2023-07-29T13:53:45;30.14;52.35
76291;DHT22;65100;46.884;17.410;2023-07-29T13:56:11;30.22;52.06
76291;DHT22;65100;46.884;17.410;2023-07-29T13:58:36;30.15;51.96
76291;DHT22;65100;46.884;17.410;2023-07-29T14:01:01;30.21;51.06
76291;DHT22;65100;46.884;17.410;2023-07-29T14:03:27;30.17;52.81
76291;DHT22;65100;46.884;17.410;2023-07-29T14:05:52;30.25;51.82
76291;DHT22;65100;46.884;17.410;2023-07-29T14:08:18;30.36;51.59
76291;DHT22;65100;46.884;17.410;2023-07-29T14:10:43;30.39;52.03
76291;DHT22;65100;46.884;17.410;2023-07-29T14:13:09;30.39;51.81
76291;DHT22;65100;46.884;17.410;2023-07-29T14:15:34;30.49;51.86
76291;DHT22;65100;46.884;17.410;2023-07-29T14:18:00;30.31;52.17
76291;DHT22;65100;46.884;17.410;2023-07-29T14:20:25;30.35;51.98
76291;DHT22;65100;46.884;17.410;2023-07-29T14:22:51;30.54;51.89
76291;DHT22;65100;46.884;17.410;2023-07-29T14:25:16;30.78;51.95
76291;DHT22;65100;46.884;17.410;2023-07-29T14:27:42;30.92;48.69
76291;DHT22;65100;46.884;17.410;2023-07-29T14:30:08;30.96;48.12
76291;DHT22;65100;46.884;17.410;2023-07-29T14:32:33;30.96;48.32
76291;DHT22;65100;46.884;17.410;2023-07-29T14:34:59;31.02;47.13
76291;DHT22;65100;46.884;17.410;2023-07-29T14:37:29;31.06;47.04
76291;DHT22;65100;46.884;17.410;2023-07-29T14:39:57;31.15;46.86
76291;DHT22;65100;46.884;17.410;2023-07-29T14:42:22;31.19;45.95
76291;DHT22;65100;46.884;17.410;2023-07-29T14:44:48;31.15;45.75
76291;DHT22;65100;46.884;17.410;2023-07-29T14:47:13;31.19;45.29
76291;DHT22;65100;46.884;17.410;2023-07-29T14:49:38;31.18;44.72
76291;DHT22;65100;46.884;17.410;2023-07-29T14:52:05;31.00;47.02
76291;DHT22;65100;46.884;17.410;2023-07-29T14:54:31;31.08;47.06
76291;DHT22;65100;46.884;17.410;2023-07-29T14:56:56;30.90;47.48
76291;DHT22;65100;46.884;17.410;2023-07-29T14:59:21;30.87;47.58
76291;DHT22;65100;46.884;17.410;2023-07-29T15:01:47;30.86;47.59
76291;DHT22;65100;46.884;17.410;2023-07-29T15:04:12;30.87;47.66
76291;DHT22;65100;46.884;17.410;2023-07-29T15:06:38;30.85;48.57
76291;DHT22;65100;46.884;17.410;2023-07-29T15:09:04;30.69;49.40
76291;DHT22;65100;46.884;17.410;2023-07-29T15:11:30;30.64;49.56
76291;DHT22;65100;46.884;17.410;2023-07-29T15:13:58;30.62;50.55
76291;DHT22;65100;46.884;17.410;2023-07-29T15:16:24;30.56;50.27
76291;DHT22;65100;46.884;17.410;2023-07-29T15:18:50;30.66;51.57
76291;DHT22;65100;46.884;17.410;2023-07-29T15:21:16;30.64;50.25
76291;DHT22;65100;46.884;17.410;2023-07-29T15:23:42;30.68;51.12
76291;DHT22;65100;46.884;17.410;2023-07-29T15:26:07;30.68;50.26
76291;DHT22;65100;46.884;17.410;2023-07-29T15:28:33;30.65;50.44